TimeCDT,TemperatureF,Dew PointF,Humidity,Sea Level PressureIn,VisibilityMPH,Wind Direction,Wind SpeedMPH,Gust SpeedMPH,PrecipitationIn,Events,Conditions,WindDirDegrees,DateUTC
12:15 AM,41.0,28.4,61,30.12,10.0,East,4.6,-,N/A,,Partly Cloudy,90,2013-04-05 05:15:00
12:35 AM,41.0,28.4,61,30.12,10.0,East,4.6,-,N/A,,Scattered Clouds,90,2013-04-05 05:35:00
12:55 AM,39.2,28.4,65,30.12,10.0,East,4.6,-,N/A,,Clear,80,2013-04-05 05:55:00
1:15 AM,37.4,28.4,70,30.12,10.0,ENE,3.5,-,N/A,,Clear,70,2013-04-05 06:15:00
1:35 AM,33.8,28.4,81,30.12,10.0,ENE,5.8,-,N/A,,Clear,60,2013-04-05 06:35:00
1:55 AM,35.6,28.4,75,30.12,10.0,NE,4.6,-,N/A,,Clear,50,2013-04-05 06:55:00
2:15 AM,37.4,28.4,70,30.11,10.0,ESE,6.9,-,N/A,,Partly Cloudy,110,2013-04-05 07:15:00
2:35 AM,37.4,26.6,65,30.10,10.0,ESE,6.9,-,N/A,,Partly Cloudy,110,2013-04-05 07:35:00
2:55 AM,37.4,28.4,70,30.09,10.0,ESE,9.2,-,N/A,,Clear,110,2013-04-05 07:55:00
3:15 AM,37.4,28.4,70,30.10,10.0,East,8.1,-,N/A,,Clear,100,2013-04-05 08:15:00
3:35 AM,35.6,28.4,75,30.10,10.0,East,6.9,-,N/A,,Clear,100,2013-04-05 08:35:00
3:55 AM,35.6,28.4,75,30.11,10.0,East,5.8,-,N/A,,Clear,100,2013-04-05 08:55:00
4:15 AM,35.6,28.4,75,30.12,10.0,East,6.9,-,N/A,,Clear,90,2013-04-05 09:15:00
4:35 AM,35.6,28.4,75,30.12,10.0,East,5.8,-,N/A,,Partly Cloudy,90,2013-04-05 09:35:00
4:55 AM,33.8,28.4,81,30.12,10.0,East,5.8,-,N/A,,Partly Cloudy,90,2013-04-05 09:55:00
5:15 AM,32.0,28.4,87,30.12,10.0,East,8.1,-,N/A,,Partly Cloudy,100,2013-04-05 10:15:00
5:35 AM,33.8,28.4,81,30.11,10.0,East,9.2,-,N/A,,Partly Cloudy,100,2013-04-05 10:35:00
5:55 AM,33.8,28.4,81,30.12,10.0,East,6.9,-,N/A,,Scattered Clouds,100,2013-04-05 10:55:00
6:15 AM,33.8,28.4,81,30.12,10.0,ESE,8.1,-,N/A,,Partly Cloudy,110,2013-04-05 11:15:00
6:35 AM,35.6,28.4,75,30.12,10.0,ESE,10.4,-,N/A,,Clear,110,2013-04-05 11:35:00
6:55 AM,35.6,30.2,81,30.11,10.0,ESE,10.4,-,N/A,,Scattered Clouds,120,2013-04-05 11:55:00
7:15 AM,35.6,30.2,81,30.11,10.0,SE,9.2,-,N/A,,Scattered Clouds,130,2013-04-05 12:15:00
7:35 AM,35.6,32.0,87,30.11,10.0,SE,8.1,-,N/A,,Partly Cloudy,130,2013-04-05 12:35:00
7:55 AM,37.4,32.0,81,30.11,10.0,SE,11.5,-,N/A,,Clear,130,2013-04-05 12:55:00
8:15 AM,37.4,32.0,81,30.10,10.0,SE,12.7,-,N/A,,Clear,130,2013-04-05 13:15:00
8:35 AM,39.2,32.0,75,30.10,10.0,SE,17.3,20.7,N/A,,Clear,130,2013-04-05 13:35:00
8:55 AM,39.2,32.0,75,30.10,10.0,SE,18.4,23.0,N/A,,Clear,140,2013-04-05 13:55:00
9:15 AM,41.0,32.0,70,30.08,10.0,SE,17.3,-,N/A,,Clear,140,2013-04-05 14:15:00
9:35 AM,44.6,32.0,61,30.08,10.0,SE,16.1,-,N/A,,Clear,140,2013-04-05 14:35:00
9:55 AM,46.4,32.0,57,30.07,10.0,SE,20.7,-,N/A,,Clear,140,2013-04-05 14:55:00
10:15 AM,48.2,33.8,58,30.05,10.0,SSE,19.6,-,N/A,,Clear,150,2013-04-05 15:15:00
10:35 AM,50.0,35.6,58,30.04,10.0,SE,21.9,-,N/A,,Clear,140,2013-04-05 15:35:00
10:55 AM,53.6,35.6,51,30.04,10.0,SSE,17.3,-,N/A,,Clear,160,2013-04-05 15:55:00
11:15 AM,55.4,35.6,47,30.03,10.0,SSE,19.6,23.0,N/A,,Clear,160,2013-04-05 16:15:00
11:35 AM,57.2,37.4,48,30.03,10.0,SSE,17.3,-,N/A,,Clear,160,2013-04-05 16:35:00
11:55 AM,59.0,37.4,45,30.02,10.0,SSE,18.4,26.5,N/A,,Clear,160,2013-04-05 16:55:00
12:15 PM,59.0,37.4,45,30.00,10.0,South,21.9,-,N/A,,Clear,170,2013-04-05 17:15:00
12:35 PM,60.8,37.4,42,29.99,10.0,South,24.2,28.8,N/A,,Clear,190,2013-04-05 17:35:00
12:55 PM,62.6,35.6,37,29.97,10.0,South,21.9,32.2,N/A,,Clear,180,2013-04-05 17:55:00
1:15 PM,64.4,35.6,34,29.95,10.0,SSE,24.2,28.8,N/A,,Clear,160,2013-04-05 18:15:00
1:35 PM,66.2,32.0,28,29.93,10.0,South,21.9,28.8,N/A,,Clear,180,2013-04-05 18:35:00
1:55 PM,66.2,32.0,28,29.91,10.0,South,24.2,32.2,N/A,,Clear,180,2013-04-05 18:55:00
2:15 PM,68.0,32.0,26,29.89,10.0,South,24.2,29.9,N/A,,Clear,180,2013-04-05 19:15:00
2:35 PM,69.8,30.2,23,29.87,10.0,South,24.2,32.2,N/A,,Clear,190,2013-04-05 19:35:00
2:55 PM,68.0,26.6,21,29.85,10.0,South,26.5,31.1,N/A,,Clear,180,2013-04-05 19:55:00
3:15 PM,68.0,28.4,23,29.83,10.0,South,23.0,32.2,N/A,,Clear,190,2013-04-05 20:15:00
3:35 PM,68.0,28.4,23,29.82,10.0,South,25.3,31.1,N/A,,Clear,180,2013-04-05 20:35:00
3:55 PM,68.0,32.0,26,29.81,10.0,South,25.3,34.5,N/A,,Clear,180,2013-04-05 20:55:00
4:15 PM,68.0,32.0,26,29.79,10.0,South,26.5,35.7,N/A,,Clear,180,2013-04-05 21:15:00
4:35 PM,69.8,32.0,25,29.78,10.0,South,26.5,35.7,N/A,,Clear,190,2013-04-05 21:35:00
4:55 PM,69.8,32.0,25,29.77,10.0,South,24.2,35.7,N/A,,Clear,190,2013-04-05 21:55:00
5:15 PM,69.8,32.0,25,29.77,10.0,South,26.5,33.4,N/A,,Clear,190,2013-04-05 22:15:00
5:35 PM,68.0,32.0,26,29.77,10.0,South,26.5,34.5,N/A,,Clear,190,2013-04-05 22:35:00
5:55 PM,68.0,32.0,26,29.76,10.0,SSW,25.3,35.7,N/A,,Clear,200,2013-04-05 22:55:00
6:15 PM,66.2,32.0,28,29.76,10.0,South,21.9,29.9,N/A,,Clear,190,2013-04-05 23:15:00
6:35 PM,64.4,33.8,32,29.76,10.0,South,19.6,27.6,N/A,,Clear,180,2013-04-05 23:35:00
6:55 PM,64.4,35.6,34,29.76,10.0,South,19.6,25.3,N/A,,Clear,190,2013-04-05 23:55:00
7:15 PM,62.6,35.6,37,29.75,10.0,South,19.6,27.6,N/A,,Clear,180,2013-04-06 00:15:00
7:35 PM,62.6,37.4,39,29.74,10.0,South,19.6,-,N/A,,Clear,180,2013-04-06 00:35:00
7:55 PM,60.8,37.4,42,29.74,10.0,South,16.1,24.2,N/A,,Clear,180,2013-04-06 00:55:00
8:15 PM,60.8,37.4,42,29.73,10.0,South,16.1,-,N/A,,Clear,180,2013-04-06 01:15:00
8:35 PM,59.0,37.4,45,29.72,10.0,South,17.3,24.2,N/A,,Clear,170,2013-04-06 01:35:00
8:55 PM,59.0,37.4,45,29.72,10.0,South,13.8,-,N/A,,Clear,180,2013-04-06 01:55:00
9:15 PM,59.0,37.4,45,29.71,10.0,South,17.3,23.0,N/A,,Clear,180,2013-04-06 02:15:00
9:35 PM,59.0,39.2,48,29.71,10.0,South,19.6,24.2,N/A,,Clear,190,2013-04-06 02:35:00
9:55 PM,57.2,39.2,51,29.70,10.0,South,19.6,25.3,N/A,,Clear,180,2013-04-06 02:55:00
10:15 PM,57.2,39.2,51,29.70,10.0,South,21.9,27.6,N/A,,Clear,190,2013-04-06 03:15:00
10:35 PM,57.2,39.2,51,29.69,10.0,South,18.4,26.5,N/A,,Clear,190,2013-04-06 03:35:00
10:55 PM,55.4,39.2,54,29.69,10.0,South,16.1,24.2,N/A,,Clear,190,2013-04-06 03:55:00
11:15 PM,55.4,39.2,54,29.68,10.0,South,23.0,27.6,N/A,,Clear,190,2013-04-06 04:15:00
11:35 PM,55.4,39.2,54,29.68,10.0,South,19.6,27.6,N/A,,Clear,190,2013-04-06 04:35:00
11:55 PM,55.4,39.2,54,29.67,10.0,South,18.4,26.5,N/A,,Clear,190,2013-04-06 04:55:00